Time;durP1;ratioP1;P1;durP2;ratioP2;P2;SDS_P1;SDS_P2;PMS_P1;PMS_P2;Temp;Humidity;BMP_temperature;BMP_pressure;BME280_temperature;BME280_humidity;BME280_pressure;Samples;Min_cycle;Max_cycle;Signal;HPM_P1;HPM_P2
2021/06/23 05:02:06;;;;;;;15.57;11.10;;;;;;;;;;5320942;23;20243;-71
2021/06/23 05:04:51;;;;;;;12.17;11.03;;;;;;;;;;4973463;28;20868;-72
2021/06/23 05:07:36;;;;;;;14.97;10.63;;;;;;;;;;4973671;28;20292;-71
2021/06/23 05:10:21;;;;;;;13.40;10.27;;;;;;;;;;4973887;28;20208;-71
2021/06/23 05:13:06;;;;;;;16.67;10.13;;;;;;;;;;4972902;28;20199;-71
2021/06/23 05:15:52;;;;;;;14.60;10.77;;;;;;;;;;4997261;23;20243;-67
2021/06/23 05:18:38;;;;;;;12.80;11.10;;;;;;;;;;4992769;28;20209;-66
2021/06/23 05:21:23;;;;;;;18.53;11.40;;;;;;;;;;4988434;28;20227;-66
2021/06/23 05:24:08;;;;;;;14.37;11.70;;;;;;;;;;4992568;28;20691;-66
2021/06/23 05:26:53;;;;;;;11.93;10.83;;;;;;;;;;4967737;28;20356;-66
2021/06/23 05:29:38;;;;;;;19.07;12.30;;;;;;;;;;4954358;29;20284;-66
2021/06/23 05:32:24;;;;;;;16.60;10.53;;;;;;;;;;4956048;28;20203;-66
2021/06/23 05:35:10;;;;;;;11.13;9.93;;;;;;;;;;4967307;28;20243;-67
2021/06/23 05:37:56;;;;;;;15.43;11.45;;;;;;;;;;4953634;29;20455;-66
2021/06/23 05:40:41;;;;;;;15.33;10.50;;;;;;;;;;4959182;28;20802;-66
2021/06/23 05:43:26;;;;;;;12.00;9.07;;;;;;;;;;4954454;28;20281;-66
2021/06/23 05:46:11;;;;;;;12.43;9.30;;;;;;;;;;4955218;28;20238;-66
2021/06/23 05:48:56;;;;;;;21.40;10.70;;;;;;;;;;4971806;28;20260;-66
2021/06/23 05:51:42;;;;;;;9.63;8.60;;;;;;;;;;4972543;28;20208;-66
2021/06/23 05:54:27;;;;;;;10.10;8.17;;;;;;;;;;4966704;28;20336;-66
2021/06/23 05:57:12;;;;;;;10.00;7.77;;;;;;;;;;4953794;29;20234;-66
2021/06/23 05:59:57;;;;;;;10.87;7.97;;;;;;;;;;4955385;28;20268;-66
2021/06/23 06:02:41;;;;;;;9.77;7.37;;;;;;;;;;4967224;28;20589;-66
2021/06/23 06:05:26;;;;;;;14.77;8.47;;;;;;;;;;4972364;28;20702;-66
2021/06/23 06:08:12;;;;;;;9.53;7.17;;;;;;;;;;4973038;28;20712;-67
2021/06/23 06:10:57;;;;;;;12.13;7.13;;;;;;;;;;4971821;28;20211;-66
2021/06/23 06:13:42;;;;;;;10.95;7.30;;;;;;;;;;4972038;28;20410;-67
2021/06/23 06:16:27;;;;;;;9.67;6.57;;;;;;;;;;4970012;28;20241;-67
2021/06/23 06:19:12;;;;;;;10.80;7.30;;;;;;;;;;4972531;28;20222;-67
2021/06/23 06:21:57;;;;;;;12.97;7.30;;;;;;;;;;4972212;28;20228;-66
2021/06/23 06:24:43;;;;;;;9.57;6.67;;;;;;;;;;4968421;28;20658;-67
2021/06/23 06:27:28;;;;;;;11.93;6.70;;;;;;;;;;4953716;28;20378;-67
2021/06/23 06:30:13;;;;;;;6.73;4.83;;;;;;;;;;4956680;28;20218;-67
2021/06/23 06:32:58;;;;;;;10.40;5.70;;;;;;;;;;4954812;28;20417;-67
2021/06/23 06:35:43;;;;;;;18.93;6.17;;;;;;;;;;4971120;28;20624;-66
2021/06/23 06:38:28;;;;;;;9.43;4.93;;;;;;;;;;4963386;28;20299;-67
2021/06/23 06:41:14;;;;;;;6.83;5.40;;;;;;;;;;4952911;28;20413;-66
2021/06/23 06:43:59;;;;;;;10.43;4.53;;;;;;;;;;4951601;28;20214;-66
2021/06/23 06:46:44;;;;;;;6.53;4.10;;;;;;;;;;4954752;28;20936;-67
2021/06/23 06:49:30;;;;;;;21.90;5.40;;;;;;;;;;4953584;28;20260;-67
2021/06/23 06:52:14;;;;;;;6.73;4.43;;;;;;;;;;4958199;28;20632;-67
2021/06/23 06:54:59;;;;;;;8.00;4.67;;;;;;;;;;4965315;28;20343;-67
2021/06/23 06:57:45;;;;;;;10.63;4.83;;;;;;;;;;4965102;28;20247;-67
2021/06/23 07:00:31;;;;;;;15.50;4.80;;;;;;;;;;4952629;28;20211;-66
2021/06/23 07:03:15;;;;;;;6.93;3.83;;;;;;;;;;4966625;28;20231;-66
2021/06/23 07:06:02;;;;;;;10.73;4.40;;;;;;;;;;4959199;28;20239;-67
2021/06/23 07:08:46;;;;;;;7.72;4.05;;;;;;;;;;4954495;28;20512;-67
2021/06/23 07:11:31;;;;;;;7.57;3.60;;;;;;;;;;4954985;28;20215;-66
2021/06/23 07:14:19;;;;;;;7.27;3.70;;;;;;;;;;4951676;29;20207;-66
2021/06/23 07:17:04;;;;;;;9.60;4.27;;;;;;;;;;4961627;28;20321;-67
2021/06/23 07:19:49;;;;;;;9.40;3.57;;;;;;;;;;4968160;28;20695;-66
2021/06/23 07:22:34;;;;;;;8.97;3.57;;;;;;;;;;4951702;29;20755;-64
2021/06/23 07:25:19;;;;;;;10.50;3.93;;;;;;;;;;4956980;28;20215;-65
2021/06/23 07:28:05;;;;;;;8.13;3.80;;;;;;;;;;4951962;28;20429;-67
2021/06/23 07:30:51;;;;;;;11.17;3.40;;;;;;;;;;4957192;28;20688;-66
2021/06/23 07:33:38;;;;;;;7.63;3.60;;;;;;;;;;4953112;28;20266;-66
2021/06/23 07:36:34;;;;;;;10.83;3.43;;;;;;;;;;4952668;29;20236;-66
2021/06/23 07:39:20;;;;;;;8.33;3.13;;;;;;;;;;4955781;29;20227;-66
2021/06/23 07:42:05;;;;;;;7.50;2.83;;;;;;;;;;4966834;28;20225;-66
2021/06/23 07:44:56;;;;;;;9.37;3.03;;;;;;;;;;4974805;28;20207;-65
2021/06/23 07:47:43;;;;;;;9.73;3.30;;;;;;;;;;4975484;28;20231;-66
2021/06/23 07:50:34;;;;;;;7.07;3.03;;;;;;;;;;4975357;28;20207;-66
2021/06/23 07:53:25;;;;;;;7.67;3.10;;;;;;;;;;4974765;28;20203;-66
2021/06/23 07:56:12;;;;;;;6.20;3.13;;;;;;;;;;4975261;28;20222;-66
2021/06/23 08:02:39;;;;;;;7.77;3.17;;;;;;;;;;4973766;28;20215;-65
2021/06/23 08:08:31;;;;;;;6.03;2.93;;;;;;;;;;4974316;28;20266;-66
2021/06/23 08:11:18;;;;;;;9.50;3.10;;;;;;;;;;4955639;29;20208;-66
2021/06/23 08:14:04;;;;;;;7.37;3.03;;;;;;;;;;4956175;28;20199;-66
2021/06/23 08:16:49;;;;;;;7.63;3.03;;;;;;;;;;4972920;28;20238;-66
2021/06/23 08:19:34;;;;;;;8.70;3.40;;;;;;;;;;4974344;28;20211;-67
2021/06/23 08:22:20;;;;;;;16.10;3.47;;;;;;;;;;4974663;28;20235;-67
2021/06/23 08:25:06;;;;;;;6.77;2.97;;;;;;;;;;4974823;28;20259;-66
2021/06/23 08:27:51;;;;;;;4.83;2.83;;;;;;;;;;4974749;28;20211;-66
2021/06/23 08:30:36;;;;;;;8.47;2.80;;;;;;;;;;4974671;28;20271;-67
2021/06/23 08:33:26;;;;;;;8.73;2.60;;;;;;;;;;4956382;28;20700;-67
2021/06/23 08:36:10;;;;;;;7.07;2.73;;;;;;;;;;4955263;29;20227;-66
2021/06/23 08:38:57;;;;;;;11.40;3.10;;;;;;;;;;4955140;29;20295;-66
2021/06/23 08:41:41;;;;;;;6.37;2.40;;;;;;;;;;4954942;29;20213;-67
2021/06/23 08:44:26;;;;;;;5.53;2.90;;;;;;;;;;4956732;28;20284;-67
2021/06/23 08:47:11;;;;;;;5.33;2.50;;;;;;;;;;4968648;28;20228;-66
2021/06/23 08:49:57;;;;;;;7.17;2.60;;;;;;;;;;4953883;28;20817;-67
2021/06/23 08:52:43;;;;;;;5.00;2.50;;;;;;;;;;4964504;28;20295;-66
2021/06/23 08:55:29;;;;;;;10.10;3.23;;;;;;;;;;4974139;28;20800;-66
2021/06/23 08:58:14;;;;;;;6.60;2.33;;;;;;;;;;4974146;28;20283;-66
2021/06/23 09:00:59;;;;;;;6.40;2.70;;;;;;;;;;4971085;28;20313;-67
2021/06/23 09:03:59;;;;;;;11.50;3.20;;;;;;;;;;4957282;28;20236;-68
2021/06/23 09:06:46;;;;;;;10.90;2.70;;;;;;;;;;4968492;28;20311;-67
2021/06/23 09:09:34;;;;;;;8.07;3.03;;;;;;;;;;4971616;28;20208;-67
2021/06/23 09:12:20;;;;;;;8.63;3.10;;;;;;;;;;4953583;28;20413;-67
2021/06/23 09:15:05;;;;;;;6.57;2.60;;;;;;;;;;4969509;28;20259;-66
2021/06/23 09:17:50;;;;;;;12.80;3.27;;;;;;;;;;4969073;28;20211;-67
2021/06/23 09:20:35;;;;;;;7.40;3.00;;;;;;;;;;4971872;28;20234;-67
2021/06/23 09:23:35;;;;;;;6.23;2.53;;;;;;;;;;4970792;28;20227;-66
2021/06/23 09:26:21;;;;;;;5.37;2.87;;;;;;;;;;4971824;28;20223;-67
2021/06/23 09:29:10;;;;;;;7.20;2.70;;;;;;;;;;4972443;28;20723;-66
2021/06/23 09:31:57;;;;;;;8.00;2.73;;;;;;;;;;4954308;29;20317;-66
2021/06/23 09:34:43;;;;;;;5.63;2.57;;;;;;;;;;4957446;28;20208;-65
2021/06/23 09:37:30;;;;;;;8.43;2.73;;;;;;;;;;4957425;28;20512;-66
2021/06/23 09:40:16;;;;;;;8.33;2.97;;;;;;;;;;4963282;28;20708;-66
2021/06/23 09:43:02;;;;;;;6.83;2.90;;;;;;;;;;4970732;28;20352;-65
2021/06/23 09:45:53;;;;;;;6.57;2.73;;;;;;;;;;4972386;28;20315;-66
2021/06/23 09:48:38;;;;;;;9.40;3.10;;;;;;;;;;4961174;28;20691;-68
2021/06/23 09:51:23;;;;;;;7.50;2.67;;;;;;;;;;4970200;28;20692;-66
2021/06/23 09:54:08;;;;;;;9.33;3.13;;;;;;;;;;4972081;28;20207;-66
2021/06/23 09:56:54;;;;;;;8.50;2.80;;;;;;;;;;4963746;28;20302;-66
2021/06/23 09:59:40;;;;;;;6.40;2.87;;;;;;;;;;4972927;28;20211;-66
2021/06/23 10:02:28;;;;;;;16.37;3.50;;;;;;;;;;4971601;28;20208;-66
2021/06/23 10:05:28;;;;;;;19.33;4.10;;;;;;;;;;4969840;28;20818;-66
2021/06/23 10:08:20;;;;;;;4.40;2.87;;;;;;;;;;4969652;28;20295;-66
2021/06/23 10:11:05;;;;;;;6.90;3.03;;;;;;;;;;4967894;28;20207;-66
2021/06/23 10:13:50;;;;;;;5.10;2.93;;;;;;;;;;4966580;28;20208;-66
2021/06/23 10:16:36;;;;;;;6.63;2.80;;;;;;;;;;4960778;28;20239;-66
2021/06/23 10:19:22;;;;;;;6.67;2.70;;;;;;;;;;4959692;28;20208;-66
2021/06/23 10:22:08;;;;;;;14.47;3.57;;;;;;;;;;4953384;29;20701;-66
2021/06/23 10:24:54;;;;;;;7.97;3.20;;;;;;;;;;4952331;29;20209;-67
2021/06/23 10:27:40;;;;;;;8.30;3.13;;;;;;;;;;4953016;29;20300;-66
2021/06/23 10:30:28;;;;;;;7.47;3.00;;;;;;;;;;4953439;29;20299;-65
2021/06/23 10:33:13;;;;;;;6.20;2.90;;;;;;;;;;4952515;29;20204;-66
2021/06/23 10:35:59;;;;;;;6.70;3.10;;;;;;;;;;4953119;29;20236;-66
2021/06/23 10:38:47;;;;;;;7.67;2.83;;;;;;;;;;4952819;29;20209;-66
2021/06/23 10:41:38;;;;;;;7.90;2.77;;;;;;;;;;4952697;28;20216;-66
2021/06/23 10:44:25;;;;;;;7.07;2.90;;;;;;;;;;4969127;28;20228;-66
2021/06/23 10:47:11;;;;;;;7.90;3.00;;;;;;;;;;4971181;28;20232;-65
2021/06/23 10:49:56;;;;;;;6.13;3.00;;;;;;;;;;4959344;28;20304;-65
2021/06/23 10:52:43;;;;;;;5.27;2.70;;;;;;;;;;4958284;28;20205;-65
2021/06/23 10:55:38;;;;;;;6.60;3.17;;;;;;;;;;4955162;28;20693;-66
2021/06/23 10:58:27;;;;;;;6.95;2.90;;;;;;;;;;4953105;28;20216;-67
2021/06/23 11:01:12;;;;;;;5.07;2.67;;;;;;;;;;4952394;29;20213;-66
2021/06/23 11:03:58;;;;;;;5.10;2.93;;;;;;;;;;4951772;29;20220;-67
2021/06/23 11:06:44;;;;;;;7.70;3.10;;;;;;;;;;4952334;29;20247;-66
2021/06/23 11:09:30;;;;;;;11.23;3.53;;;;;;;;;;4952590;29;20204;-65
2021/06/23 11:12:38;;;;;;;7.37;3.20;;;;;;;;;;4951533;29;20205;-66
2021/06/23 11:15:25;;;;;;;6.83;3.30;;;;;;;;;;4955178;28;20208;-65
2021/06/23 11:18:22;;;;;;;4.70;3.20;;;;;;;;;;4973305;23;20322;-72
2021/06/23 11:21:17;;;;;;;6.10;3.13;;;;;;;;;;4963593;28;20225;-72
2021/06/23 11:24:03;;;;;;;7.87;3.00;;;;;;;;;;4970919;28;20590;-72
2021/06/23 11:26:49;;;;;;;5.13;3.20;;;;;;;;;;4973391;28;20209;-72
2021/06/23 11:29:35;;;;;;;16.33;3.80;;;;;;;;;;4991188;28;20298;-72
2021/06/23 11:32:25;;;;;;;6.22;2.70;;;;;;;;;;4984084;28;20467;-71
2021/06/23 11:35:12;;;;;;;16.53;3.60;;;;;;;;;;4968367;28;20291;-72
2021/06/23 11:37:56;;;;;;;8.23;2.73;;;;;;;;;;4970363;28;20715;-72
2021/06/23 11:40:41;;;;;;;10.67;3.17;;;;;;;;;;4972159;28;20261;-72
2021/06/23 11:43:27;;;;;;;8.33;2.70;;;;;;;;;;4971007;28;20226;-72
2021/06/23 11:46:12;;;;;;;9.80;3.20;;;;;;;;;;4971355;28;20290;-72
2021/06/23 11:48:57;;;;;;;7.93;3.07;;;;;;;;;;4971047;28;20232;-71
2021/06/23 11:51:43;;;;;;;13.95;3.70;;;;;;;;;;4969892;28;20447;-71
2021/06/23 11:54:28;;;;;;;7.27;3.00;;;;;;;;;;4970817;28;20219;-71
2021/06/23 11:57:15;;;;;;;6.10;3.10;;;;;;;;;;4971576;28;20227;-71
2021/06/23 12:00:01;;;;;;;16.07;3.57;;;;;;;;;;4971445;28;20212;-71
2021/06/23 12:02:45;;;;;;;5.10;2.97;;;;;;;;;;4971234;28;20209;-71
2021/06/23 12:05:31;;;;;;;7.93;3.30;;;;;;;;;;4971390;28;20213;-72
2021/06/23 12:08:16;;;;;;;12.10;3.70;;;;;;;;;;4971411;28;20783;-72
2021/06/23 12:11:01;;;;;;;7.20;2.83;;;;;;;;;;4971337;28;20207;-71
2021/06/23 12:13:46;;;;;;;6.00;2.53;;;;;;;;;;4970708;28;20231;-72
2021/06/23 12:16:33;;;;;;;5.73;2.93;;;;;;;;;;4970871;28;20213;-71
2021/06/23 12:19:18;;;;;;;5.80;2.80;;;;;;;;;;4971090;28;20214;-72
2021/06/23 12:22:03;;;;;;;6.70;3.10;;;;;;;;;;4970956;28;20303;-71
2021/06/23 12:24:48;;;;;;;5.60;2.83;;;;;;;;;;4972682;28;20235;-72
2021/06/23 12:27:33;;;;;;;4.70;2.50;;;;;;;;;;4974748;28;20230;-72
2021/06/23 12:30:19;;;;;;;16.43;4.07;;;;;;;;;;4974776;28;20215;-71
2021/06/23 12:33:09;;;;;;;10.30;3.10;;;;;;;;;;4974103;28;20226;-71
2021/06/23 12:35:54;;;;;;;7.30;3.30;;;;;;;;;;4974542;28;20256;-71
2021/06/23 12:38:39;;;;;;;6.73;3.00;;;;;;;;;;4974304;28;20713;-71
2021/06/23 12:41:24;;;;;;;10.47;3.17;;;;;;;;;;4974344;28;20233;-71
2021/06/23 12:44:09;;;;;;;9.85;3.13;;;;;;;;;;4972987;28;20442;-72
2021/06/23 12:46:55;;;;;;;6.37;3.00;;;;;;;;;;4974043;28;20230;-72
2021/06/23 12:49:41;;;;;;;11.13;3.23;;;;;;;;;;4974490;28;20305;-71
2021/06/23 12:52:26;;;;;;;11.83;4.10;;;;;;;;;;4974081;28;20212;-71
2021/06/23 12:55:12;;;;;;;7.83;3.07;;;;;;;;;;4968732;28;20262;-71
2021/06/23 12:57:56;;;;;;;5.40;2.60;;;;;;;;;;4986582;28;20230;-71
2021/06/23 13:00:41;;;;;;;7.13;2.93;;;;;;;;;;4974142;28;20287;-71
2021/06/23 13:03:26;;;;;;;38.57;5.27;;;;;;;;;;4973098;28;20216;-71
2021/06/23 13:06:12;;;;;;;6.57;2.77;;;;;;;;;;4973969;28;20295;-70
2021/06/23 13:08:58;;;;;;;12.50;3.23;;;;;;;;;;4973726;28;20816;-70
2021/06/23 13:11:43;;;;;;;4.50;2.43;;;;;;;;;;4958634;28;20208;-70
2021/06/23 13:14:28;;;;;;;6.83;3.23;;;;;;;;;;4953851;29;20205;-70
2021/06/23 13:17:13;;;;;;;5.77;3.00;;;;;;;;;;4973124;28;20603;-71
2021/06/23 13:19:58;;;;;;;6.13;3.00;;;;;;;;;;4972491;28;20917;-70
2021/06/23 13:22:44;;;;;;;8.10;3.10;;;;;;;;;;4972977;28;20360;-70
2021/06/23 13:25:29;;;;;;;9.37;3.10;;;;;;;;;;4973169;28;20227;-70
2021/06/23 13:28:14;;;;;;;6.33;3.03;;;;;;;;;;4963163;28;20272;-70
2021/06/23 13:30:59;;;;;;;5.13;3.13;;;;;;;;;;4954178;29;20210;-70
2021/06/23 13:33:43;;;;;;;17.53;3.73;;;;;;;;;;4953527;29;20200;-70
2021/06/23 13:36:28;;;;;;;9.50;3.00;;;;;;;;;;4960436;28;20272;-70
2021/06/23 13:39:16;;;;;;;11.47;3.43;;;;;;;;;;4972965;28;20251;-70
2021/06/23 13:42:01;;;;;;;6.47;3.10;;;;;;;;;;4972688;28;20212;-70
2021/06/23 13:44:46;;;;;;;9.10;3.07;;;;;;;;;;4972445;28;20280;-70
2021/06/23 13:47:31;;;;;;;6.77;3.97;;;;;;;;;;4973245;28;20767;-71
2021/06/23 13:50:17;;;;;;;4.97;2.80;;;;;;;;;;4973289;28;20207;-70
2021/06/23 13:53:03;;;;;;;7.23;2.87;;;;;;;;;;4972210;28;20271;-70
2021/06/23 13:55:49;;;;;;;13.17;3.60;;;;;;;;;;4973153;28;20623;-70
2021/06/23 13:58:34;;;;;;;17.50;3.87;;;;;;;;;;4972984;28;20741;-71
2021/06/23 14:01:19;;;;;;;16.53;3.73;;;;;;;;;;4970930;28;20211;-71
2021/06/23 14:04:04;;;;;;;4.47;2.77;;;;;;;;;;4958246;28;20384;-71
2021/06/23 14:06:49;;;;;;;5.13;3.00;;;;;;;;;;4972881;28;20212;-71
2021/06/23 14:09:36;;;;;;;9.80;3.00;;;;;;;;;;4972586;28;20250;-71
2021/06/23 14:12:23;;;;;;;16.77;4.10;;;;;;;;;;4972924;28;20560;-70
2021/06/23 14:15:09;;;;;;;8.10;3.10;;;;;;;;;;4972366;28;20189;-70
2021/06/23 14:17:55;;;;;;;22.60;4.63;;;;;;;;;;4971884;28;20587;-70
2021/06/23 14:20:39;;;;;;;5.97;3.33;;;;;;;;;;4972183;28;20788;-70
2021/06/23 14:23:24;;;;;;;6.47;3.10;;;;;;;;;;4971583;28;20212;-70
2021/06/23 14:26:10;;;;;;;5.13;3.10;;;;;;;;;;4953626;29;20216;-70
2021/06/23 14:28:56;;;;;;;7.80;3.20;;;;;;;;;;4968993;28;20232;-70
2021/06/23 14:31:41;;;;;;;7.03;3.03;;;;;;;;;;4972730;28;20351;-70
2021/06/23 14:34:26;;;;;;;8.87;3.23;;;;;;;;;;4971929;28;20223;-70
2021/06/23 14:37:11;;;;;;;6.03;3.33;;;;;;;;;;4972245;28;20235;-70
2021/06/23 14:39:56;;;;;;;23.73;4.47;;;;;;;;;;4972205;28;20320;-70
2021/06/23 14:42:41;;;;;;;4.10;2.90;;;;;;;;;;4971666;28;20236;-70
2021/06/23 14:45:28;;;;;;;8.50;4.67;;;;;;;;;;4971954;28;20223;-70
2021/06/23 14:48:13;;;;;;;13.00;3.43;;;;;;;;;;4971757;28;20305;-70
2021/06/23 14:50:58;;;;;;;6.20;3.40;;;;;;;;;;4971465;28;20207;-70
2021/06/23 14:53:43;;;;;;;6.37;3.27;;;;;;;;;;4971133;28;20212;-70
2021/06/23 14:56:28;;;;;;;6.40;3.50;;;;;;;;;;4971985;28;20333;-70
2021/06/23 14:59:13;;;;;;;21.10;4.60;;;;;;;;;;4971930;28;20216;-70
2021/06/23 15:01:59;;;;;;;9.40;3.60;;;;;;;;;;4971699;28;20248;-69
2021/06/23 15:04:43;;;;;;;5.73;3.43;;;;;;;;;;4970825;28;20879;-70
2021/06/23 15:07:28;;;;;;;8.65;3.80;;;;;;;;;;4970959;28;20431;-69
2021/06/23 15:10:14;;;;;;;7.87;3.50;;;;;;;;;;4971733;28;20212;-69
2021/06/23 15:13:00;;;;;;;7.90;3.30;;;;;;;;;;4970725;28;20701;-70
2021/06/23 15:15:45;;;;;;;6.93;3.40;;;;;;;;;;4971656;28;20300;-71
2021/06/23 15:18:31;;;;;;;6.57;3.20;;;;;;;;;;4970692;28;20728;-70
2021/06/23 15:21:16;;;;;;;8.17;3.93;;;;;;;;;;4971406;28;20217;-71
2021/06/23 15:24:01;;;;;;;9.23;3.93;;;;;;;;;;4970936;28;20224;-70
2021/06/23 15:26:46;;;;;;;7.03;4.18;;;;;;;;;;4970659;28;20564;-70
2021/06/23 15:29:31;;;;;;;7.10;3.57;;;;;;;;;;4964356;28;20241;-70
2021/06/23 15:32:17;;;;;;;5.83;3.33;;;;;;;;;;4971764;28;20264;-71
2021/06/23 15:35:04;;;;;;;5.93;3.30;;;;;;;;;;4971648;28;20741;-70
2021/06/23 15:37:50;;;;;;;10.63;3.53;;;;;;;;;;4971345;28;20233;-71
2021/06/23 15:40:35;;;;;;;8.57;3.33;;;;;;;;;;4971681;28;20209;-70
2021/06/23 15:43:21;;;;;;;8.67;3.43;;;;;;;;;;4970534;28;20335;-71
2021/06/23 15:46:07;;;;;;;7.93;3.87;;;;;;;;;;4970402;28;20227;-70
2021/06/23 15:48:52;;;;;;;8.30;3.80;;;;;;;;;;4971473;28;20232;-70
2021/06/23 15:51:38;;;;;;;7.47;3.70;;;;;;;;;;4971560;28;20208;-70
2021/06/23 15:54:23;;;;;;;6.67;3.67;;;;;;;;;;4971047;28;20671;-71
2021/06/23 15:57:08;;;;;;;7.47;3.90;;;;;;;;;;4971628;28;20229;-70
2021/06/23 15:59:53;;;;;;;8.20;4.37;;;;;;;;;;4974052;28;20204;-71
2021/06/23 16:02:39;;;;;;;9.83;4.27;;;;;;;;;;4974410;28;20211;-71
2021/06/23 16:05:27;;;;;;;7.07;3.73;;;;;;;;;;4975090;28;20239;-71
2021/06/23 16:08:13;;;;;;;5.80;4.47;;;;;;;;;;4975145;28;20245;-71
2021/06/23 16:10:57;;;;;;;10.40;3.60;;;;;;;;;;4974683;28;20220;-71
2021/06/23 16:13:42;;;;;;;9.27;4.10;;;;;;;;;;4974625;28;20227;-70
2021/06/23 16:16:28;;;;;;;6.73;3.97;;;;;;;;;;4974936;28;20208;-70
2021/06/23 16:19:12;;;;;;;7.53;4.00;;;;;;;;;;4974641;28;20338;-70
2021/06/23 16:21:59;;;;;;;8.40;4.00;;;;;;;;;;4975020;28;20216;-70
2021/06/23 16:24:45;;;;;;;16.53;4.73;;;;;;;;;;4973899;28;20224;-70
2021/06/23 16:27:30;;;;;;;24.03;5.30;;;;;;;;;;4974816;28;20250;-71
2021/06/23 16:30:16;;;;;;;7.20;3.80;;;;;;;;;;4974851;28;20704;-70
2021/06/23 16:33:01;;;;;;;6.17;3.43;;;;;;;;;;4966206;28;20690;-71
2021/06/23 16:35:47;;;;;;;10.73;5.00;;;;;;;;;;4974506;28;20208;-70
2021/06/23 16:38:33;;;;;;;7.13;3.73;;;;;;;;;;4974577;28;20332;-70
2021/06/23 16:41:20;;;;;;;6.47;3.83;;;;;;;;;;4972487;28;20299;-70
2021/06/23 16:44:05;;;;;;;6.23;3.60;;;;;;;;;;4973414;28;20208;-70
2021/06/23 16:46:50;;;;;;;7.17;4.10;;;;;;;;;;4974155;28;20291;-71
2021/06/23 16:49:35;;;;;;;6.60;3.90;;;;;;;;;;4982522;28;20580;-70
2021/06/23 16:52:20;;;;;;;4.47;3.30;;;;;;;;;;4993657;28;20307;-68
2021/06/23 16:55:06;;;;;;;15.50;4.43;;;;;;;;;;4966857;28;20688;-70
2021/06/23 16:57:52;;;;;;;6.00;3.90;;;;;;;;;;4974300;28;20227;-70
2021/06/23 17:00:37;;;;;;;10.97;3.90;;;;;;;;;;4973283;28;20220;-71
2021/06/23 17:03:23;;;;;;;6.73;3.73;;;;;;;;;;4955037;28;20217;-70
2021/06/23 17:06:08;;;;;;;14.43;4.43;;;;;;;;;;4954679;29;20236;-70
2021/06/23 17:08:53;;;;;;;6.13;3.83;;;;;;;;;;4954620;29;20240;-70
2021/06/23 17:11:38;;;;;;;8.77;4.10;;;;;;;;;;4953751;28;20741;-70
2021/06/23 17:14:24;;;;;;;5.70;3.72;;;;;;;;;;4963702;28;20408;-70
2021/06/23 17:17:09;;;;;;;13.07;4.33;;;;;;;;;;4973518;28;20756;-70
2021/06/23 17:19:54;;;;;;;9.53;4.07;;;;;;;;;;4986292;23;20760;-64
2021/06/23 17:22:39;;;;;;;7.17;4.13;;;;;;;;;;4954049;29;20312;-67
2021/06/23 17:25:24;;;;;;;6.73;3.90;;;;;;;;;;4954282;29;20227;-64
2021/06/23 17:28:10;;;;;;;8.67;4.27;;;;;;;;;;4954580;28;20237;-63
2021/06/23 17:30:57;;;;;;;5.30;3.40;;;;;;;;;;4972907;28;20208;-64
2021/06/23 17:33:41;;;;;;;7.30;4.10;;;;;;;;;;4973557;28;20561;-65
2021/06/23 17:36:26;;;;;;;5.67;3.70;;;;;;;;;;4974355;28;20281;-64
2021/06/23 17:39:12;;;;;;;5.60;3.83;;;;;;;;;;4974620;28;20293;-64
2021/06/23 17:41:57;;;;;;;7.40;3.70;;;;;;;;;;4955911;29;20212;-65
2021/06/23 17:44:42;;;;;;;10.77;4.37;;;;;;;;;;4953343;29;22162;-64
2021/06/23 17:47:28;;;;;;;23.63;5.03;;;;;;;;;;4973261;28;20332;-65
2021/06/23 17:50:13;;;;;;;11.23;4.78;;;;;;;;;;4971997;28;20411;-64
2021/06/23 17:52:58;;;;;;;8.77;3.87;;;;;;;;;;4972185;28;20696;-64
2021/06/23 17:55:43;;;;;;;6.90;3.87;;;;;;;;;;4973585;28;20208;-66
2021/06/23 17:58:31;;;;;;;8.63;4.43;;;;;;;;;;4973170;28;20770;-64
2021/06/23 18:01:16;;;;;;;8.53;4.63;;;;;;;;;;4972429;28;20723;-65
2021/06/23 18:04:02;;;;;;;7.80;4.20;;;;;;;;;;4972436;28;20564;-64
2021/06/23 18:06:47;;;;;;;10.57;4.20;;;;;;;;;;4972702;28;20331;-65
2021/06/23 18:09:31;;;;;;;8.40;4.95;;;;;;;;;;4971458;28;20414;-66
2021/06/23 18:12:16;;;;;;;12.23;4.47;;;;;;;;;;4972460;28;20211;-65
2021/06/23 18:15:01;;;;;;;7.07;4.17;;;;;;;;;;4972836;28;20200;-65
2021/06/23 18:17:46;;;;;;;8.60;4.13;;;;;;;;;;4972580;28;20286;-64
2021/06/23 18:20:33;;;;;;;8.97;5.33;;;;;;;;;;4971884;28;20212;-64
2021/06/23 18:23:18;;;;;;;19.47;5.37;;;;;;;;;;4971355;28;20211;-64
2021/06/23 18:26:03;;;;;;;13.87;5.10;;;;;;;;;;4972157;28;20231;-65
2021/06/23 18:28:48;;;;;;;12.63;4.30;;;;;;;;;;4972271;28;20356;-64
2021/06/23 18:31:34;;;;;;;7.23;3.97;;;;;;;;;;4972367;28;20212;-64
2021/06/23 18:34:19;;;;;;;9.47;4.30;;;;;;;;;;4970919;28;20204;-64
2021/06/23 18:37:05;;;;;;;7.73;4.50;;;;;;;;;;4972283;28;20212;-64
2021/06/23 18:39:50;;;;;;;6.90;4.73;;;;;;;;;;4952897;28;20237;-65
2021/06/23 18:42:35;;;;;;;5.67;4.20;;;;;;;;;;4966001;28;20705;-64
2021/06/23 18:45:20;;;;;;;8.50;4.67;;;;;;;;;;4971847;28;20231;-64
2021/06/23 18:48:06;;;;;;;9.97;4.93;;;;;;;;;;4971726;28;20231;-64
2021/06/23 18:50:51;;;;;;;8.53;4.90;;;;;;;;;;4972023;28;20824;-65
2021/06/23 18:53:37;;;;;;;6.87;3.87;;;;;;;;;;4971343;28;20703;-64
2021/06/23 18:56:22;;;;;;;8.00;3.90;;;;;;;;;;4972027;28;20251;-65
2021/06/23 18:59:07;;;;;;;17.20;5.10;;;;;;;;;;4971852;28;20227;-64
2021/06/23 19:01:52;;;;;;;7.70;4.20;;;;;;;;;;4971170;28;20430;-65
2021/06/23 19:04:37;;;;;;;8.93;4.47;;;;;;;;;;4970923;28;20204;-64
2021/06/23 19:07:22;;;;;;;6.63;4.80;;;;;;;;;;4971987;28;20692;-65
2021/06/23 19:10:09;;;;;;;8.73;4.30;;;;;;;;;;4971379;28;20287;-64
2021/06/23 19:12:54;;;;;;;4.20;3.60;;;;;;;;;;4970693;28;20216;-64
2021/06/23 19:15:39;;;;;;;21.27;5.20;;;;;;;;;;4971735;28;20203;-65
2021/06/23 19:18:24;;;;;;;8.17;4.10;;;;;;;;;;4971597;28;20283;-64
2021/06/23 19:21:10;;;;;;;5.97;3.43;;;;;;;;;;4971756;28;20207;-65
2021/06/23 19:23:55;;;;;;;21.13;4.93;;;;;;;;;;4971182;28;20212;-64
2021/06/23 19:26:41;;;;;;;7.70;3.70;;;;;;;;;;4971324;28;20219;-64
2021/06/23 19:29:25;;;;;;;6.23;4.00;;;;;;;;;;4971601;28;20227;-64
2021/06/23 19:32:13;;;;;;;6.27;4.27;;;;;;;;;;4971656;28;20360;-65
2021/06/23 19:35:00;;;;;;;6.20;4.13;;;;;;;;;;4974152;28;20211;-65
2021/06/23 19:37:45;;;;;;;18.42;5.25;;;;;;;;;;4975190;28;20419;-64
2021/06/23 19:40:30;;;;;;;11.53;4.33;;;;;;;;;;4956310;29;20675;-62
2021/06/23 19:43:17;;;;;;;13.20;5.00;;;;;;;;;;4970119;28;20216;-65
2021/06/23 19:46:02;;;;;;;5.63;4.03;;;;;;;;;;4969142;28;20240;-66
2021/06/23 19:48:47;;;;;;;8.00;4.57;;;;;;;;;;4971668;28;20335;-64
2021/06/23 19:51:31;;;;;;;7.33;4.20;;;;;;;;;;4974959;28;20603;-62
2021/06/23 19:54:18;;;;;;;25.20;6.00;;;;;;;;;;4974315;28;20215;-65
2021/06/23 19:57:03;;;;;;;8.98;4.60;;;;;;;;;;4974381;28;20492;-65
2021/06/23 19:59:50;;;;;;;9.80;4.47;;;;;;;;;;4974440;28;20255;-67
